createdAt,value
2023-12-14T00:00:20.445Z,83.70
2023-12-14T00:02:47.956Z,99.80
2023-12-14T00:05:16.971Z,89.43
2023-12-14T00:07:44.568Z,93.77
2023-12-14T00:10:14.228Z,93.90
2023-12-14T00:12:41.899Z,89.73
2023-12-14T00:15:10.031Z,88.17
2023-12-14T00:17:38.046Z,81.00
2023-12-14T00:20:06.894Z,85.57
2023-12-14T00:22:36.120Z,83.77
2023-12-14T00:25:03.891Z,82.87
2023-12-14T00:27:31.460Z,71.60
2023-12-14T00:29:59.025Z,88.33
2023-12-14T00:32:26.602Z,79.33
2023-12-14T00:34:54.339Z,69.37
2023-12-14T00:37:22.081Z,87.90
2023-12-14T00:39:50.970Z,96.27
2023-12-14T00:42:18.568Z,77.43
2023-12-14T00:44:46.132Z,98.40
2023-12-14T00:47:13.743Z,81.10
2023-12-14T00:49:41.387Z,72.83
2023-12-14T00:52:08.971Z,73.73
2023-12-14T00:54:36.673Z,94.03
2023-12-14T00:57:06.026Z,80.50
2023-12-14T00:59:33.624Z,93.90
2023-12-14T01:02:01.345Z,92.70
2023-12-14T01:04:29.026Z,77.43
2023-12-14T01:06:56.616Z,85.60
2023-12-14T01:09:24.206Z,98.87
2023-12-14T01:11:51.914Z,112.10
2023-12-14T01:14:20.878Z,111.20
2023-12-14T01:16:48.529Z,115.97
2023-12-14T01:19:16.234Z,108.70
2023-12-14T01:21:43.875Z,98.03
2023-12-14T01:24:11.942Z,123.37
2023-12-14T01:26:39.531Z,132.83
2023-12-14T01:29:07.137Z,123.50
2023-12-14T01:31:36.125Z,126.63
2023-12-14T01:34:04.239Z,134.43
2023-12-14T01:36:31.867Z,121.10
2023-12-14T01:38:59.436Z,117.37
2023-12-14T01:41:26.990Z,112.20
2023-12-14T01:43:54.542Z,112.17
2023-12-14T01:46:22.083Z,97.37
2023-12-14T01:48:51.188Z,110.40
2023-12-14T01:51:18.820Z,113.47
2023-12-14T01:53:46.619Z,122.77
2023-12-14T01:56:14.245Z,120.30
2023-12-14T01:58:41.810Z,141.23
2023-12-14T02:01:18.088Z,131.57
2023-12-14T02:03:50.665Z,135.00
2023-12-14T02:06:19.583Z,147.20
2023-12-14T02:08:47.164Z,116.83
2023-12-14T02:11:14.764Z,121.40
2023-12-14T02:13:42.446Z,124.90
2023-12-14T02:16:10.480Z,130.73
2023-12-14T02:18:38.073Z,141.87
2023-12-14T02:21:06.367Z,109.90
2023-12-14T02:23:35.533Z,136.40
2023-12-14T02:26:03.276Z,132.93
2023-12-14T02:28:30.955Z,139.00
2023-12-14T02:30:58.487Z,113.30
2023-12-14T02:33:25.994Z,140.50
2023-12-14T02:35:53.662Z,127.03
2023-12-14T02:38:21.341Z,160.20
2023-12-14T02:40:51.466Z,128.97
2023-12-14T02:43:19.027Z,133.83
2023-12-14T02:45:46.645Z,121.67
2023-12-14T02:48:14.360Z,142.47
2023-12-14T02:50:41.965Z,133.60
2023-12-14T02:53:09.641Z,147.67
2023-12-14T02:55:37.500Z,138.00
2023-12-14T02:58:06.389Z,134.13
2023-12-14T03:00:33.989Z,113.33
2023-12-14T03:03:01.576Z,132.77
2023-12-14T03:05:29.185Z,129.70
2023-12-14T03:07:56.812Z,124.33
2023-12-14T03:10:24.359Z,135.07
2023-12-14T03:12:52.956Z,110.10
2023-12-14T03:15:21.958Z,124.43
2023-12-14T03:17:49.607Z,131.30
2023-12-14T03:20:17.404Z,120.77
2023-12-14T03:22:45.110Z,102.67
2023-12-14T03:25:13.028Z,118.67
2023-12-14T03:27:40.583Z,113.67
2023-12-14T03:30:11.190Z,121.37
2023-12-14T03:32:40.661Z,90.77
2023-12-14T03:35:09.484Z,130.70
2023-12-14T03:37:37.323Z,123.93
2023-12-14T03:40:05.840Z,100.87
2023-12-14T03:42:33.662Z,100.53
2023-12-14T03:45:01.451Z,100.23
2023-12-14T03:47:28.986Z,103.33
2023-12-14T03:49:58.202Z,98.97
2023-12-14T03:52:26.829Z,84.53
2023-12-14T03:54:54.378Z,93.93
2023-12-14T03:57:21.932Z,79.70
2023-12-14T03:59:49.459Z,88.60
2023-12-14T04:02:17.022Z,86.63
2023-12-14T04:04:44.706Z,97.67
2023-12-14T04:07:13.621Z,108.47
2023-12-14T04:09:41.193Z,108.00
2023-12-14T04:12:08.800Z,105.13
2023-12-14T04:14:36.315Z,117.03
2023-12-14T04:17:03.900Z,110.07
2023-12-14T04:19:31.472Z,95.77
2023-12-14T04:21:59.023Z,100.40
2023-12-14T04:24:28.733Z,97.53
2023-12-14T04:26:56.264Z,112.43
2023-12-14T04:29:23.822Z,124.03
2023-12-14T04:31:51.400Z,108.67
2023-12-14T04:34:20.149Z,107.23
2023-12-14T04:36:49.099Z,111.97
2023-12-14T04:39:17.724Z,126.37
2023-12-14T04:41:46.660Z,126.17
2023-12-14T04:44:14.214Z,118.00
2023-12-14T04:46:41.804Z,121.60
2023-12-14T04:49:09.414Z,116.23
2023-12-14T04:51:36.963Z,122.73
2023-12-14T04:54:04.741Z,115.37
2023-12-14T04:56:32.299Z,126.83
2023-12-14T04:59:01.231Z,124.77
2023-12-14T05:01:30.486Z,126.03
2023-12-14T05:03:59.265Z,110.43
2023-12-14T05:06:27.102Z,123.70
2023-12-14T05:08:54.759Z,124.07
2023-12-14T05:11:22.446Z,121.20
2023-12-14T05:13:50.024Z,95.43
2023-12-14T05:16:18.982Z,99.73
2023-12-14T05:18:46.584Z,114.10
2023-12-14T05:21:19.226Z,98.30
2023-12-14T05:23:46.923Z,102.03
2023-12-14T05:26:14.531Z,117.17
2023-12-14T05:28:42.817Z,98.60
2023-12-14T05:31:10.466Z,94.43
2023-12-14T05:33:40.410Z,108.70
2023-12-14T05:36:11.640Z,95.20
2023-12-14T05:38:40.713Z,151.83
2023-12-14T05:41:08.814Z,152.60
2023-12-14T05:43:37.503Z,132.63
2023-12-14T05:46:05.706Z,136.10
2023-12-14T05:48:33.398Z,137.43
2023-12-14T05:51:02.684Z,152.00
2023-12-14T05:53:30.293Z,133.83
2023-12-14T05:55:57.879Z,147.07
2023-12-14T05:58:25.432Z,138.53
2023-12-14T06:00:52.971Z,89.10
2023-12-14T06:03:20.483Z,129.07
2023-12-14T06:05:48.157Z,111.30
2023-12-14T06:08:17.150Z,122.43
2023-12-14T06:10:44.830Z,118.97
2023-12-14T06:13:12.329Z,155.87
2023-12-14T06:15:39.816Z,115.90
2023-12-14T06:18:07.451Z,123.20
2023-12-14T06:20:35.088Z,140.97
2023-12-14T06:23:02.640Z,148.07
2023-12-14T06:25:31.601Z,135.10
2023-12-14T06:27:59.215Z,131.47
2023-12-14T06:30:26.772Z,140.83
2023-12-14T06:32:54.356Z,141.93
2023-12-14T06:35:22.702Z,147.27
2023-12-14T06:37:50.498Z,170.93
2023-12-14T06:40:18.498Z,157.50
2023-12-14T06:42:47.397Z,173.23
2023-12-14T06:45:15.370Z,163.43
2023-12-14T06:47:44.524Z,155.90
2023-12-14T06:50:12.391Z,162.37
2023-12-14T06:52:40.015Z,133.97
2023-12-14T06:55:08.512Z,115.37
2023-12-14T06:57:36.436Z,134.43
2023-12-14T07:00:06.118Z,108.83
2023-12-14T07:02:34.399Z,84.23
2023-12-14T07:05:02.205Z,79.07
2023-12-14T07:07:29.807Z,84.07
2023-12-14T07:09:57.328Z,82.87
2023-12-14T07:12:24.875Z,107.80
2023-12-14T07:14:52.443Z,74.47
2023-12-14T07:17:21.532Z,85.07
2023-12-14T07:19:49.234Z,82.07
2023-12-14T07:22:16.744Z,74.07
2023-12-14T07:24:52.253Z,60.20
2023-12-14T07:27:20.685Z,55.27
2023-12-14T07:29:48.222Z,55.80
2023-12-14T07:32:15.786Z,40.40
2023-12-14T07:34:45.480Z,47.87
2023-12-14T07:37:13.358Z,51.07
2023-12-14T07:39:40.915Z,34.03
2023-12-14T07:42:08.497Z,34.50
2023-12-14T07:44:36.601Z,53.10
2023-12-14T07:47:04.420Z,53.73
2023-12-14T07:49:31.988Z,64.93
2023-12-14T07:52:00.863Z,74.43
2023-12-14T07:54:29.437Z,75.83
2023-12-14T07:56:57.011Z,76.30
2023-12-14T07:59:24.589Z,73.87
2023-12-14T08:01:52.254Z,75.87
2023-12-14T08:04:19.891Z,70.73
2023-12-14T08:06:47.455Z,69.03
2023-12-14T08:09:16.311Z,64.50
2023-12-14T08:11:44.037Z,54.93
2023-12-14T08:14:11.614Z,54.43
2023-12-14T08:16:39.162Z,44.97
2023-12-14T08:19:06.716Z,37.13
2023-12-14T08:21:34.433Z,19.33
2023-12-14T08:24:01.955Z,17.83
2023-12-14T08:26:30.845Z,21.50
2023-12-14T08:28:58.358Z,20.83
2023-12-14T08:31:26.208Z,19.47
2023-12-14T08:33:54.329Z,18.20
2023-12-14T08:36:21.914Z,16.93
2023-12-14T08:38:49.424Z,16.30
2023-12-14T08:41:17.581Z,18.57
2023-12-14T08:43:46.609Z,20.17
2023-12-14T08:46:14.362Z,21.80
2023-12-14T08:48:41.981Z,43.27
2023-12-14T08:51:09.524Z,38.63
2023-12-14T08:53:37.039Z,30.37
2023-12-14T08:56:04.968Z,47.43
2023-12-14T08:58:32.508Z,86.40
2023-12-14T09:01:01.465Z,73.17
2023-12-14T09:03:29.143Z,86.07
2023-12-14T09:05:59.702Z,98.80
2023-12-14T09:08:27.351Z,54.20
2023-12-14T09:10:54.959Z,61.07
2023-12-14T09:13:22.475Z,50.67
2023-12-14T09:15:53.438Z,53.10
2023-12-14T09:18:23.843Z,55.80
2023-12-14T09:20:51.771Z,47.47
2023-12-14T09:23:20.285Z,50.33
2023-12-14T09:25:48.043Z,56.77
2023-12-14T09:28:15.613Z,52.67
2023-12-14T09:30:43.209Z,52.30
2023-12-14T09:33:10.929Z,49.30
2023-12-14T09:35:39.847Z,55.50
2023-12-14T09:38:08.913Z,49.10
2023-12-14T09:40:36.534Z,50.53
2023-12-14T09:43:07.455Z,54.37
2023-12-14T09:45:37.076Z,59.10
2023-12-14T09:48:05.240Z,53.80
2023-12-14T09:50:34.651Z,53.70
2023-12-14T09:53:03.556Z,49.43
2023-12-14T09:55:32.345Z,59.70
2023-12-14T09:57:59.888Z,66.07
2023-12-14T10:00:38.932Z,55.30
2023-12-14T10:03:27.228Z,54.53
2023-12-14T10:05:56.297Z,56.97
2023-12-14T10:08:26.383Z,57.73
2023-12-14T10:10:56.407Z,52.83
2023-12-14T10:13:38.573Z,52.47
2023-12-14T10:16:06.627Z,51.57
2023-12-14T10:18:36.941Z,47.83
2023-12-14T10:21:04.863Z,57.10
2023-12-14T10:23:34.015Z,59.95
2023-12-14T10:26:01.783Z,51.17
2023-12-14T10:28:29.908Z,47.37
2023-12-14T10:30:57.499Z,46.07
2023-12-14T10:33:25.125Z,48.27
2023-12-14T10:35:53.053Z,35.67
2023-12-14T10:38:22.260Z,41.90
2023-12-14T10:40:54.222Z,51.10
2023-12-14T10:43:42.745Z,57.50
2023-12-14T10:46:12.101Z,48.40
2023-12-14T10:48:42.563Z,52.53
2023-12-14T10:51:11.536Z,49.95
2023-12-14T10:53:40.044Z,39.53
2023-12-14T10:56:13.274Z,41.35
2023-12-14T10:58:48.795Z,25.30
2023-12-14T11:01:17.624Z,26.48
2023-12-14T11:03:46.175Z,17.95
2023-12-14T11:06:30.047Z,22.02
2023-12-14T11:08:59.318Z,29.33
2023-12-14T11:11:32.111Z,18.00
2023-12-14T11:13:59.773Z,29.30
2023-12-14T11:16:30.177Z,31.80
2023-12-14T11:19:26.808Z,27.27
2023-12-14T11:22:25.799Z,26.77
2023-12-14T11:24:55.186Z,31.88
2023-12-14T11:27:28.949Z,31.80
2023-12-14T11:29:56.485Z,32.20
2023-12-14T11:32:24.128Z,19.27
2023-12-14T11:34:51.694Z,31.10
2023-12-14T11:37:18.757Z,40.23
2023-12-14T11:39:47.939Z,51.17
2023-12-14T11:42:19.193Z,43.93
2023-12-14T11:44:48.345Z,41.67
2023-12-14T11:47:16.172Z,33.08
2023-12-14T11:49:44.297Z,42.00
2023-12-14T11:52:12.246Z,46.63
2023-12-14T11:54:39.801Z,44.47
2023-12-14T11:57:10.053Z,44.10
2023-12-14T11:59:39.122Z,43.97
2023-12-14T12:02:08.802Z,43.30
2023-12-14T12:04:37.403Z,55.57
2023-12-14T12:07:06.797Z,44.97
2023-12-14T12:09:36.097Z,43.60
2023-12-14T12:12:04.283Z,43.57
2023-12-14T12:14:31.873Z,38.28
2023-12-14T12:16:59.449Z,39.60
2023-12-14T12:19:28.440Z,49.60
2023-12-14T12:21:56.009Z,72.13
2023-12-14T12:24:27.214Z,70.67
2023-12-14T12:26:55.328Z,69.83
2023-12-14T12:29:23.014Z,78.33
2023-12-14T12:31:50.681Z,66.55
2023-12-14T12:34:18.314Z,58.97
2023-12-14T12:36:47.164Z,57.70
2023-12-14T12:39:14.712Z,51.77
2023-12-14T12:41:42.305Z,44.83
2023-12-14T12:44:10.526Z,44.23
2023-12-14T12:46:38.181Z,38.63
2023-12-14T12:49:06.868Z,29.23
2023-12-14T12:51:36.194Z,28.20
2023-12-14T12:54:12.458Z,26.60
2023-12-14T12:56:41.386Z,20.80
2023-12-14T12:59:10.336Z,24.87
2023-12-14T13:01:39.208Z,36.53
2023-12-14T13:04:07.479Z,43.10
2023-12-14T13:06:35.000Z,48.00
2023-12-14T13:09:02.491Z,52.20
2023-12-14T13:11:31.435Z,24.97
2023-12-14T13:13:58.976Z,24.67
2023-12-14T13:16:28.715Z,22.03
2023-12-14T13:18:58.740Z,16.40
2023-12-14T13:21:26.413Z,25.37
2023-12-14T13:23:54.193Z,21.77
2023-12-14T13:26:21.805Z,11.73
2023-12-14T13:28:50.751Z,13.10
2023-12-14T13:31:18.302Z,13.35
2023-12-14T13:33:47.676Z,14.15
2023-12-14T13:36:15.374Z,14.48
2023-12-14T13:38:43.151Z,14.23
2023-12-14T13:41:10.881Z,14.93
2023-12-14T13:43:38.423Z,14.77
2023-12-14T13:46:18.089Z,15.93
2023-12-14T13:48:49.353Z,16.03
2023-12-14T13:51:16.936Z,16.03
2023-12-14T13:53:44.782Z,20.13
2023-12-14T13:56:12.543Z,26.83
2023-12-14T13:58:40.204Z,30.47
2023-12-14T14:01:09.192Z,34.43
2023-12-14T14:03:38.864Z,41.67
2023-12-14T14:06:07.134Z,45.70
2023-12-14T14:08:34.821Z,48.37
2023-12-14T14:11:02.941Z,52.10
2023-12-14T14:13:31.617Z,47.67
2023-12-14T14:15:59.113Z,59.73
2023-12-14T14:18:28.055Z,69.00
2023-12-14T14:20:55.973Z,76.20
2023-12-14T14:23:23.622Z,75.67
2023-12-14T14:25:54.916Z,80.90
2023-12-14T14:28:25.587Z,81.27
2023-12-14T14:30:54.132Z,78.07
2023-12-14T14:33:22.241Z,77.83
2023-12-14T14:35:52.018Z,75.67
2023-12-14T14:38:20.630Z,75.53
2023-12-14T14:40:48.165Z,65.30
2023-12-14T14:43:16.030Z,60.03
2023-12-14T14:45:45.024Z,57.67
2023-12-14T14:48:12.670Z,54.67
2023-12-14T14:50:40.222Z,49.97
2023-12-14T14:53:09.149Z,51.93
2023-12-14T14:55:36.826Z,49.30
2023-12-14T14:58:04.380Z,52.57
2023-12-14T15:00:33.441Z,51.90
2023-12-14T15:03:04.345Z,61.13
2023-12-14T15:05:32.855Z,64.10
2023-12-14T15:08:00.652Z,65.10
2023-12-14T15:10:29.945Z,71.77
2023-12-14T15:12:57.441Z,79.20
2023-12-14T15:15:24.970Z,85.17
2023-12-14T15:17:52.541Z,79.93
2023-12-14T15:20:20.336Z,79.13
2023-12-14T15:22:47.906Z,84.87
2023-12-14T15:25:17.206Z,79.67
2023-12-14T15:27:46.179Z,76.40
2023-12-14T15:30:14.803Z,74.13
2023-12-14T15:32:42.881Z,82.07
2023-12-14T15:35:11.104Z,73.83
2023-12-14T15:37:38.762Z,68.17
2023-12-14T15:40:07.525Z,78.90
2023-12-14T15:42:35.250Z,60.40
2023-12-14T15:45:09.489Z,67.23
2023-12-14T15:47:37.811Z,63.33
2023-12-14T15:50:06.767Z,67.43
2023-12-14T15:52:34.550Z,69.33
2023-12-14T15:55:02.435Z,89.80
2023-12-14T15:57:30.638Z,78.13
2023-12-14T15:59:58.378Z,76.23
2023-12-14T16:02:27.249Z,77.60
2023-12-14T16:04:54.875Z,77.60
2023-12-14T16:07:22.679Z,89.37
2023-12-14T16:09:50.529Z,129.57
2023-12-14T16:12:18.041Z,196.17
2023-12-14T16:14:45.552Z,196.50
2023-12-14T16:17:13.096Z,158.07
2023-12-14T16:19:42.020Z,90.80
2023-12-14T16:22:09.580Z,155.10
2023-12-14T16:24:37.094Z,165.30
2023-12-14T16:27:05.215Z,205.50
2023-12-14T16:29:33.749Z,210.37
2023-12-14T16:32:01.450Z,184.93
2023-12-14T16:34:29.097Z,165.70
2023-12-14T16:36:58.027Z,92.97
2023-12-14T16:39:28.724Z,60.97
2023-12-14T16:41:56.260Z,47.40
2023-12-14T16:44:25.134Z,45.30
2023-12-14T16:46:53.046Z,45.93
2023-12-14T16:49:20.653Z,32.63
2023-12-14T16:51:48.293Z,29.37
2023-12-14T16:54:17.159Z,31.33
2023-12-14T16:56:44.753Z,38.33
2023-12-14T16:59:14.334Z,44.87
2023-12-14T17:01:42.959Z,56.63
2023-12-14T17:04:10.595Z,67.17
2023-12-14T17:06:38.105Z,56.50
2023-12-14T17:09:05.687Z,105.20
2023-12-14T17:11:34.622Z,91.97
2023-12-14T17:14:02.196Z,94.57
2023-12-14T17:16:29.904Z,100.13
2023-12-14T17:18:57.517Z,92.60
2023-12-14T17:21:27.405Z,116.30
2023-12-14T17:23:56.710Z,122.13
2023-12-14T17:26:26.925Z,123.33
2023-12-14T17:28:58.204Z,114.73
2023-12-14T17:31:26.918Z,122.63
2023-12-14T17:33:55.168Z,109.37
2023-12-14T17:36:22.746Z,94.97
2023-12-14T17:38:51.183Z,93.50
2023-12-14T17:41:18.854Z,113.67
2023-12-14T17:43:46.443Z,118.17
2023-12-14T17:46:16.252Z,115.50
2023-12-14T17:48:44.247Z,133.00
2023-12-14T17:51:11.831Z,133.37
2023-12-14T17:53:39.860Z,121.77
2023-12-14T17:56:08.379Z,91.37
2023-12-14T17:58:35.940Z,89.17
2023-12-14T18:01:05.915Z,109.00
2023-12-14T18:03:35.341Z,91.53
2023-12-14T18:06:03.818Z,83.17
2023-12-14T18:08:31.708Z,79.30
2023-12-14T18:10:59.308Z,89.50
2023-12-14T18:13:27.328Z,81.43
2023-12-14T18:15:54.868Z,52.07
2023-12-14T18:18:22.771Z,106.47
2023-12-14T18:20:51.851Z,99.40
2023-12-14T18:23:19.459Z,91.47
2023-12-14T18:25:47.301Z,100.37
2023-12-14T18:28:15.236Z,100.27
2023-12-14T18:30:42.934Z,107.93
2023-12-14T18:33:11.812Z,50.10
2023-12-14T18:35:39.377Z,33.67
2023-12-14T18:38:08.716Z,56.83
2023-12-14T18:40:36.315Z,45.27
2023-12-14T18:43:03.897Z,22.37
2023-12-14T18:45:31.440Z,25.97
2023-12-14T18:47:59.177Z,23.97
2023-12-14T18:50:26.902Z,27.07
2023-12-14T18:52:57.881Z,24.80
2023-12-14T18:55:27.050Z,29.37
2023-12-14T18:57:55.322Z,26.03
2023-12-14T19:00:24.121Z,27.50
2023-12-14T19:02:51.696Z,23.37
2023-12-14T19:05:24.708Z,18.10
2023-12-14T19:07:52.791Z,22.77
2023-12-14T19:10:21.347Z,26.17
2023-12-14T19:12:50.471Z,42.23
2023-12-14T19:15:18.586Z,47.40
2023-12-14T19:17:46.223Z,46.30
2023-12-14T19:20:14.579Z,44.10
2023-12-14T19:22:42.281Z,71.23
2023-12-14T19:25:12.099Z,97.40
2023-12-14T19:27:41.009Z,126.67
2023-12-14T19:30:14.613Z,160.77
2023-12-14T19:32:42.412Z,147.60
2023-12-14T19:35:10.388Z,69.10
2023-12-14T19:37:38.327Z,55.23
2023-12-14T19:40:07.275Z,70.13
2023-12-14T19:42:35.682Z,132.50
2023-12-14T19:45:03.980Z,108.03
2023-12-14T19:47:35.586Z,123.77
2023-12-14T19:50:04.352Z,87.83
2023-12-14T19:52:31.943Z,88.07
2023-12-14T19:54:59.602Z,116.23
2023-12-14T19:57:27.348Z,94.13
2023-12-14T19:59:54.880Z,115.83
2023-12-14T20:02:22.569Z,126.00
2023-12-14T20:04:51.570Z,94.70
2023-12-14T20:07:20.253Z,68.77
2023-12-14T20:09:57.417Z,55.00
2023-12-14T20:12:29.248Z,50.13
2023-12-14T20:14:56.795Z,55.57
2023-12-14T20:17:24.446Z,56.83
2023-12-14T20:19:53.433Z,73.70
2023-12-14T20:22:21.004Z,64.30
2023-12-14T20:24:49.187Z,81.10
2023-12-14T20:27:17.563Z,77.73
2023-12-14T20:29:45.308Z,68.63
2023-12-14T20:32:12.909Z,64.03
2023-12-14T20:34:40.680Z,55.47
2023-12-14T20:37:09.697Z,62.33
2023-12-14T20:39:37.312Z,61.00
2023-12-14T20:42:05.462Z,65.87
2023-12-14T20:44:33.041Z,106.10
2023-12-14T20:47:00.611Z,67.23
2023-12-14T20:49:28.271Z,52.30
2023-12-14T20:51:55.910Z,45.07
2023-12-14T20:54:24.819Z,53.70
2023-12-14T20:56:52.459Z,46.63
2023-12-14T20:59:20.100Z,48.50
2023-12-14T21:01:47.798Z,49.60
2023-12-14T21:04:15.474Z,43.73
2023-12-14T21:06:43.172Z,47.70
2023-12-14T21:09:10.809Z,44.93
2023-12-14T21:11:39.701Z,46.07
2023-12-14T21:14:13.041Z,52.43
2023-12-14T21:16:40.721Z,42.40
2023-12-14T21:19:08.360Z,32.10
2023-12-14T21:21:36.016Z,34.40
2023-12-14T21:24:03.648Z,35.43
2023-12-14T21:26:36.723Z,33.93
2023-12-14T21:29:07.344Z,38.73
2023-12-14T21:31:35.077Z,46.27
2023-12-14T21:34:02.826Z,42.93
2023-12-14T21:36:30.383Z,42.30
2023-12-14T21:38:57.953Z,40.40
2023-12-14T21:41:25.594Z,43.07
2023-12-14T21:43:53.207Z,42.07
2023-12-14T21:46:22.123Z,44.43
2023-12-14T21:48:49.698Z,49.37
2023-12-14T21:51:17.319Z,49.07
2023-12-14T21:53:44.875Z,48.07
2023-12-14T21:56:12.550Z,49.50
2023-12-14T21:58:40.604Z,52.17
2023-12-14T22:01:08.191Z,46.03
2023-12-14T22:03:37.093Z,48.77
2023-12-14T22:06:04.827Z,50.97
2023-12-14T22:08:32.430Z,46.17
2023-12-14T22:11:00.045Z,46.73
2023-12-14T22:13:28.152Z,49.43
2023-12-14T22:15:55.696Z,46.00
2023-12-14T22:18:23.353Z,46.63
2023-12-14T22:20:52.268Z,45.07
2023-12-14T22:23:19.828Z,50.23
2023-12-14T22:25:47.513Z,46.10
2023-12-14T22:28:15.142Z,42.37
2023-12-14T22:30:42.751Z,49.13
2023-12-14T22:33:10.483Z,41.00
2023-12-14T22:35:38.063Z,52.63
2023-12-14T22:38:06.976Z,47.43
2023-12-14T22:40:34.848Z,47.77
2023-12-14T22:43:02.408Z,54.83
2023-12-14T22:45:31.479Z,51.53
2023-12-14T22:47:59.928Z,45.87
2023-12-14T22:50:29.400Z,45.57
2023-12-14T22:52:57.089Z,52.13
2023-12-14T22:55:26.164Z,50.70
2023-12-14T22:57:54.224Z,41.63
2023-12-14T23:00:27.956Z,45.37
2023-12-14T23:02:56.205Z,45.20
2023-12-14T23:05:23.868Z,47.57
2023-12-14T23:07:51.760Z,47.80
2023-12-14T23:10:19.707Z,51.67
2023-12-14T23:12:48.838Z,44.83
2023-12-14T23:15:16.591Z,49.67
2023-12-14T23:17:44.479Z,47.83
2023-12-14T23:20:13.145Z,47.17
2023-12-14T23:22:40.758Z,53.73
2023-12-14T23:25:09.136Z,50.10
2023-12-14T23:27:37.042Z,48.37
2023-12-14T23:30:07.577Z,41.33
2023-12-14T23:32:35.699Z,43.93
2023-12-14T23:35:03.324Z,44.20
2023-12-14T23:37:30.904Z,42.13
2023-12-14T23:39:58.429Z,46.83
2023-12-14T23:42:25.956Z,47.73
2023-12-14T23:44:53.554Z,46.93
2023-12-14T23:47:22.680Z,44.27
2023-12-14T23:49:50.317Z,49.23
2023-12-14T23:52:17.900Z,49.77
2023-12-14T23:54:45.551Z,49.50
2023-12-14T23:57:13.224Z,51.40
2023-12-14T23:59:40.758Z,50.70
